Autumn — V7QA6 — position and weather

sailwx.info

Track history (hours):
 
Tides and Currents Weather Stations Pressure Air Temp Water Temp Dewpoint Dewpoint Depression Visibility Wind Speed Wind Dir Waves Ship Positions

Autumn

Last reported at 2016-May-26 02:33 UTC. Time now 2016-May-26 02:46 UTC.
Position N 53°18' W 002°54'.

Length 129 m; draft 5.9 m.

Type: Tanker. MMSI: 538003323.

Date/timePositionNaut miles runAvg speedWind from/ knotsBaromVisibWave heightAir tempDewpointWater temp
2016-May-26 02:33N 53°18' W 002°54'3 2.6
2016-May-26 01:33N 53°20' W 002°57'6 6.2
2016-May-26 00:33N 53°25' W 003°01'10 9.6
2016-May-25 23:33N 53°31' W 003°14'6 6.2
2016-May-25 22:34N 53°30' W 003°24'1 1.0
2016-May-25 21:32N 53°29' W 003°25'0 0.0
2016-May-25 20:32N 53°29' W 003°25'0 0.1
2016-May-25 19:32N 53°29' W 003°26'0 0.0
2016-May-25 18:32N 53°29' W 003°26'0 0.0
2016-May-25 17:32N 53°29' W 003°26'0 0.0
2016-May-25 16:33N 53°29' W 003°26'0 0.0
2016-May-25 15:33N 53°29' W 003°26'1 0.7
2016-May-25 14:33N 53°29' W 003°27'1211.6
2016-May-25 13:33N 53°30' W 003°46'1414.0
2016-May-25 12:33N 53°30' W 004°10'1515.1
2016-May-25 11:32N 53°30' W 004°36'14613.3
2016-May-25 00:33N 51°11' W 005°51'1313.5
2016-May-24 23:33N 50°58' W 005°52'1413.4
2016-May-24 22:33N 50°44' W 005°52'1313.4
2016-May-24 21:33N 50°31' W 005°52'1313.3
2016-May-24 20:33N 50°18' W 005°53'1413.3
2016-May-24 19:32N 50°04' W 005°53'1311.6
2016-May-24 18:24N 49°56' W 005°36'1213.6
2016-May-24 17:33N 49°52' W 005°19'1313.4
2016-May-24 16:33N 49°52' W 004°59'1414.1
2016-May-24 15:33N 49°53' W 004°37'1514.8
2016-May-24 14:33N 49°55' W 004°14'1515.3
2016-May-24 13:33N 49°57' W 003°50'1515.4
2016-May-24 12:33N 49°58' W 003°27'1514.7
2016-May-24 11:34N 49°60' W 003°04'1313.4
2016-May-24 10:33N 50°03' W 002°44'5111.9
2016-May-24 06:16N 50°16' W 001°27'1114.8
2016-May-24 05:32N 50°19' W 001°11'1816.2
2016-May-24 04:26N 50°24' W 000°44'1516.1
2016-May-24 03:32N 50°27' W 000°22'1515.4
2016-May-24 02:33N 50°31' E 000°01'1514.7
2016-May-24 01:33N 50°35' E 000°24'3113.2
2016-May-23 23:11N 50°52' E 001°05'813.2
2016-May-23 22:33N 50°57' E 001°15'1515.2
2016-May-23 21:34N 51°07' E 001°34'1716.5
2016-May-23 20:33N 51°19' E 001°52'1211.7
2016-May-23 19:34N 51°22' E 002°10'1413.7
2016-May-23 18:34N 51°23' E 002°32'1313.1
2016-May-23 17:33N 51°22' E 002°53'1313.0
2016-May-23 16:33N 51°25' E 003°14'1313.2
2016-May-23 15:33N 51°26' E 003°34'10 9.7
2016-May-23 14:33N 51°21' E 003°48'9 8.9
2016-May-23 13:33N 51°26' E 003°60'8 7.7
2016-May-23 12:33N 51°24' E 004°11'9 8.9
2016-May-23 11:34N 51°17' E 004°20'0 0.4
2016-May-23 10:33N 51°17' E 004°20'1 0.6
2016-May-23 09:33N 51°16' E 004°21'0 0.0
2016-May-23 08:33N 51°16' E 004°21'0 0.0
2016-May-23 07:33N 51°16' E 004°21'0 0.0
2016-May-23 06:33N 51°16' E 004°21'0 0.0
2016-May-23 05:33N 51°16' E 004°21'0 0.0
2016-May-23 04:33N 51°16' E 004°21'0 0.0
2016-May-23 03:33N 51°16' E 004°21'0 0.0
2016-May-23 02:33N 51°16' E 004°21'0 0.0
2016-May-23 01:33N 51°16' E 004°21'0 0.0
2016-May-23 00:33N 51°16' E 004°21'0 0.0
2016-May-22 23:33N 51°16' E 004°21'0 0.0
2016-May-22 22:30N 51°16' E 004°21'0 0.0
2016-May-22 21:33N 51°16' E 004°21'0 0.0
2016-May-22 20:33N 51°16' E 004°21'0 0.0
2016-May-22 19:33N 51°16' E 004°21'0 0.0
2016-May-22 18:33N 51°16' E 004°21'0 0.0
2016-May-22 17:33N 51°16' E 004°21'0 0.0
2016-May-22 16:33N 51°16' E 004°21'0 0.0
2016-May-22 15:30N 51°16' E 004°21'0 0.0
2016-May-22 14:33N 51°16' E 004°21'0 0.0
2016-May-22 13:33N 51°16' E 004°21'0 0.0
2016-May-22 12:27N 51°16' E 004°21'0 0.0
2016-May-22 11:33N 51°16' E 004°21'0 0.0
2016-May-22 10:33N 51°16' E 004°21'0 0.0
2016-May-22 09:33N 51°16' E 004°21'0 0.0
2016-May-22 08:33N 51°16' E 004°21'0 0.0
2016-May-22 07:33N 51°16' E 004°21'0 0.0
2016-May-22 06:33N 51°16' E 004°21'0 0.0
2016-May-22 05:33N 51°16' E 004°21'0 0.0
2016-May-22 04:33N 51°16' E 004°21'0 0.0
2016-May-22 03:33N 51°16' E 004°21'0 0.0
2016-May-22 02:33N 51°16' E 004°21'0 0.0
2016-May-22 01:33N 51°16' E 004°21'0 0.0
2016-May-22 00:33N 51°16' E 004°21'0 0.0
2016-May-21 23:30N 51°16' E 004°21'0 0.0
2016-May-21 22:33N 51°16' E 004°21'0 0.0
2016-May-21 21:33N 51°16' E 004°21'0 0.0
2016-May-21 20:33N 51°16' E 004°21'0 0.0
2016-May-21 19:30N 51°16' E 004°21'0 0.0
2016-May-21 18:27N 51°16' E 004°21'0 0.0
2016-May-21 17:27N 51°16' E 004°21'0 0.0
2016-May-21 16:30N 51°16' E 004°21'0 0.0
2016-May-21 15:33N 51°16' E 004°21'0 0.0
2016-May-21 14:33N 51°16' E 004°21'0 0.0
2016-May-21 13:33N 51°16' E 004°21'0 0.0
2016-May-21 12:33N 51°16' E 004°21'0 0.0
2016-May-21 11:32N 51°16' E 004°21'0 0.0
2016-May-21 10:32N 51°16' E 004°21'0 0.0
2016-May-21 09:33N 51°16' E 004°21'0 0.0
2016-May-21 08:32N 51°16' E 004°21'0 0.0
2016-May-21 07:33N 51°16' E 004°21'0 0.0
2016-May-21 06:33N 51°16' E 004°21'0 0.0
2016-May-21 05:32N 51°16' E 004°21'0 0.0
2016-May-21 04:32N 51°16' E 004°21'0 0.0
2016-May-21 03:30N 51°16' E 004°21'0 0.0
2016-May-21 02:33N 51°16' E 004°21'0 0.0
2016-May-21 01:29N 51°16' E 004°21'0 0.0
2016-May-21 00:32N 51°16' E 004°21'0 0.0
2016-May-20 23:32N 51°16' E 004°21'0 0.0
2016-May-20 22:32N 51°16' E 004°21'0 0.0
2016-May-20 21:32N 51°16' E 004°21'0 0.0
2016-May-20 20:32N 51°16' E 004°21'0 0.0
2016-May-20 19:32N 51°16' E 004°21'0 0.0
2016-May-20 18:33N 51°16' E 004°21'0 0.0
2016-May-20 17:32N 51°16' E 004°21'0 0.0
2016-May-20 16:32N 51°16' E 004°21'0 0.0
2016-May-20 15:26N 51°16' E 004°21'0 0.0
2016-May-20 14:32N 51°16' E 004°21'0 0.0
2016-May-20 13:29N 51°16' E 004°21'0 0.0
2016-May-20 12:32N 51°16' E 004°21'0 0.0
2016-May-20 11:32N 51°16' E 004°21'0 0.0
2016-May-20 10:32N 51°16' E 004°21'0 0.0
2016-May-20 09:32N 51°16' E 004°21'0 0.0
2016-May-20 08:29N 51°16' E 004°21'0 0.0
2016-May-20 07:32N 51°16' E 004°21'0 0.0
2016-May-20 06:32N 51°16' E 004°21'0 0.0
2016-May-20 05:32N 51°16' E 004°21'0 0.0
2016-May-20 04:26N 51°16' E 004°21'0 0.0
2016-May-20 03:32N 51°16' E 004°21'0 0.0
2016-May-20 02:32N 51°16' E 004°21'0 0.0
2016-May-20 01:29N 51°16' E 004°21'0 0.0
2016-May-20 00:32N 51°16' E 004°21'0 0.0
2016-May-19 23:29N 51°16' E 004°21'0 0.0
2016-May-19 22:29N 51°16' E 004°21'0 0.0
2016-May-19 21:32N 51°16' E 004°21'0 0.0
2016-May-19 20:32N 51°16' E 004°21'0 0.0
2016-May-19 19:29N 51°16' E 004°21'0 0.0
2016-May-19 18:32N 51°16' E 004°21'0 0.0
2016-May-19 17:32N 51°16' E 004°21'0 0.0
2016-May-19 16:17N 51°16' E 004°21'0 0.0
2016-May-19 15:29N 51°16' E 004°21'0 0.0
2016-May-19 14:32N 51°16' E 004°21'0 0.0
2016-May-19 13:32N 51°16' E 004°21'0 0.0
2016-May-19 12:32N 51°16' E 004°21'0 0.0
2016-May-19 11:26N 51°16' E 004°21'0 0.0
2016-May-19 10:29N 51°16' E 004°21'0 0.0
2016-May-19 09:32N 51°16' E 004°21'0 0.0
2016-May-19 08:32N 51°16' E 004°21'0 0.0
2016-May-19 07:32N 51°16' E 004°21'0 0.0
2016-May-19 06:32N 51°16' E 004°21'0 0.0
2016-May-19 05:32N 51°16' E 004°21'0 0.0
2016-May-19 04:32N 51°16' E 004°21'0 0.0
2016-May-19 03:32N 51°16' E 004°21'0 0.0
2016-May-19 02:32N 51°16' E 004°21'0 0.0
2016-May-19 01:32N 51°16' E 004°21'0 0.0
2016-May-19 00:29N 51°16' E 004°21'0 0.0
2016-May-18 23:32N 51°16' E 004°21'0 0.0
2016-May-18 22:32N 51°16' E 004°21'0 0.0
2016-May-18 21:32N 51°16' E 004°21'0 0.0
2016-May-18 20:32N 51°16' E 004°21'0 0.0
2016-May-18 19:32N 51°16' E 004°21'0 0.0
2016-May-18 18:26N 51°16' E 004°21'0 0.0
2016-May-18 17:32N 51°16' E 004°21'0 0.0
2016-May-18 16:32N 51°16' E 004°21'0 0.0
2016-May-18 15:32N 51°16' E 004°21'0 0.0
2016-May-18 14:32N 51°16' E 004°21'0 0.0
2016-May-18 13:29N 51°16' E 004°21'0 0.0
2016-May-18 12:29N 51°16' E 004°21'0 0.0
2016-May-18 11:32N 51°16' E 004°21'0 0.0
2016-May-18 10:29N 51°16' E 004°21'0 0.0
2016-May-18 09:32N 51°16' E 004°21'0 0.0
2016-May-18 08:32N 51°16' E 004°21'0 0.0
2016-May-18 07:32N 51°16' E 004°21'0 0.0
2016-May-18 06:32N 51°16' E 004°21'0 0.0
2016-May-18 05:32N 51°16' E 004°21'0 0.0
2016-May-18 04:29N 51°16' E 004°21'0 0.0
2016-May-18 03:32N 51°16' E 004°21'0 0.0
2016-May-18 02:32N 51°16' E 004°21'0 0.0
2016-May-18 01:29N 51°16' E 004°21'0 0.0
2016-May-18 00:32N 51°16' E 004°21'0 0.0
2016-May-17 23:29N 51°16' E 004°21'0 0.0
2016-May-17 22:32N 51°16' E 004°21'0 0.0
2016-May-17 21:32N 51°16' E 004°21'0 0.0
2016-May-17 20:32N 51°16' E 004°21'0 0.0
2016-May-17 19:29N 51°16' E 004°21'0 0.0
2016-May-17 18:32N 51°16' E 004°21'0 0.0
2016-May-17 17:32N 51°16' E 004°21'1 0.6
2016-May-17 16:33N 51°17' E 004°21'4 4.3
2016-May-17 15:33N 51°21' E 004°17'0 0.3
2016-May-17 14:33N 51°21' E 004°17'5 5.3
2016-May-17 13:33N 51°23' E 004°09'7 7.3
2016-May-17 12:34N 51°24' E 003°57'9 9.3
2016-May-17 11:34N 51°24' E 003°43'10 9.7
2016-May-17 10:33N 51°25' E 003°27'10 9.8
2016-May-17 09:33N 51°24' E 003°11'1212.5
2016-May-17 08:34N 51°22' E 002°52'1211.8
2016-May-17 07:33N 51°20' E 002°33'1 0.8
2016-May-17 06:15N 51°20' E 002°32'0 0.0
2016-May-17 05:30N 51°20' E 002°32'0 0.0
2016-May-17 04:33N 51°20' E 002°32'0 0.1
2016-May-17 03:33N 51°20' E 002°32'0 0.1
2016-May-17 02:30N 51°20' E 002°32'0 0.0
2016-May-17 01:33N 51°20' E 002°32'0 0.0
2016-May-17 00:33N 51°20' E 002°32'0 0.0
2016-May-16 23:33N 51°20' E 002°32'0 0.0
2016-May-16 22:33N 51°20' E 002°32'0 0.0
2016-May-16 21:33N 51°20' E 002°32'0 0.0
2016-May-16 20:33N 51°20' E 002°32'0 0.1
2016-May-16 19:33N 51°20' E 002°32'0 0.1
2016-May-16 18:33N 51°20' E 002°32'0 0.0
2016-May-16 17:33N 51°20' E 002°32'0 0.0
2016-May-16 16:33N 51°20' E 002°32'0 0.0
2016-May-16 15:33N 51°20' E 002°32'0 0.0
2016-May-16 14:33N 51°20' E 002°32'0 0.0
2016-May-16 13:33N 51°20' E 002°32'0 0.0
2016-May-16 12:32N 51°20' E 002°32'0 0.1
2016-May-16 11:32N 51°20' E 002°32'0 0.0
2016-May-16 10:32N 51°20' E 002°32'0 0.0
2016-May-16 09:33N 51°20' E 002°32'0 0.0
2016-May-16 08:29N 51°20' E 002°32'2 1.6
2016-May-16 07:28N 51°21' E 002°33'8 8.1
2016-May-16 06:29N 51°19' E 002°20'1010.7
2016-May-16 05:34N 51°15' E 002°06'1212.2
2016-May-16 04:33N 51°08' E 001°50'1211.7
2016-May-16 03:34N 51°00' E 001°37'  
Track history (hours):
 
Tides and Currents Weather Stations Pressure Air Temp Water Temp Dewpoint Dewpoint Depression Visibility Wind Speed Wind Dir Waves Ship Positions

Autumn

Last reported at 2016-May-26 02:33 UTC. Time now 2016-May-26 02:46 UTC.
Position N 53°18' W 002°54'.

Length 129 m; draft 5.9 m.

Type: Tanker. MMSI: 538003323.

Date/timePositionNaut miles runAvg speedWind from/ knotsBaromVisibWave heightAir tempDewpointWater temp
2016-May-26 02:33N 53°18' W 002°54'3 2.6
2016-May-26 01:33N 53°20' W 002°57'6 6.2
2016-May-26 00:33N 53°25' W 003°01'10 9.6
2016-May-25 23:33N 53°31' W 003°14'6 6.2
2016-May-25 22:34N 53°30' W 003°24'1 1.0
2016-May-25 21:32N 53°29' W 003°25'0 0.0
2016-May-25 20:32N 53°29' W 003°25'0 0.1
2016-May-25 19:32N 53°29' W 003°26'0 0.0
2016-May-25 18:32N 53°29' W 003°26'0 0.0
2016-May-25 17:32N 53°29' W 003°26'0 0.0
2016-May-25 16:33N 53°29' W 003°26'0 0.0
2016-May-25 15:33N 53°29' W 003°26'1 0.7
2016-May-25 14:33N 53°29' W 003°27'1211.6
2016-May-25 13:33N 53°30' W 003°46'1414.0
2016-May-25 12:33N 53°30' W 004°10'1515.1
2016-May-25 11:32N 53°30' W 004°36'14613.3
2016-May-25 00:33N 51°11' W 005°51'1313.5
2016-May-24 23:33N 50°58' W 005°52'1413.4
2016-May-24 22:33N 50°44' W 005°52'1313.4
2016-May-24 21:33N 50°31' W 005°52'1313.3
2016-May-24 20:33N 50°18' W 005°53'1413.3
2016-May-24 19:32N 50°04' W 005°53'1311.6
2016-May-24 18:24N 49°56' W 005°36'1213.6
2016-May-24 17:33N 49°52' W 005°19'1313.4
2016-May-24 16:33N 49°52' W 004°59'1414.1
2016-May-24 15:33N 49°53' W 004°37'1514.8
2016-May-24 14:33N 49°55' W 004°14'1515.3
2016-May-24 13:33N 49°57' W 003°50'1515.4
2016-May-24 12:33N 49°58' W 003°27'1514.7
2016-May-24 11:34N 49°60' W 003°04'1313.4
2016-May-24 10:33N 50°03' W 002°44'5111.9
2016-May-24 06:16N 50°16' W 001°27'1114.8
2016-May-24 05:32N 50°19' W 001°11'1816.2
2016-May-24 04:26N 50°24' W 000°44'1516.1
2016-May-24 03:32N 50°27' W 000°22'1515.4
2016-May-24 02:33N 50°31' E 000°01'1514.7
2016-May-24 01:33N 50°35' E 000°24'3113.2
2016-May-23 23:11N 50°52' E 001°05'813.2
2016-May-23 22:33N 50°57' E 001°15'1515.2
2016-May-23 21:34N 51°07' E 001°34'1716.5
2016-May-23 20:33N 51°19' E 001°52'1211.7
2016-May-23 19:34N 51°22' E 002°10'1413.7
2016-May-23 18:34N 51°23' E 002°32'1313.1
2016-May-23 17:33N 51°22' E 002°53'1313.0
2016-May-23 16:33N 51°25' E 003°14'1313.2
2016-May-23 15:33N 51°26' E 003°34'10 9.7
2016-May-23 14:33N 51°21' E 003°48'9 8.9
2016-May-23 13:33N 51°26' E 003°60'8 7.7
2016-May-23 12:33N 51°24' E 004°11'9 8.9
2016-May-23 11:34N 51°17' E 004°20'0 0.4
2016-May-23 10:33N 51°17' E 004°20'1 0.6
2016-May-23 09:33N 51°16' E 004°21'0 0.0
2016-May-23 08:33N 51°16' E 004°21'0 0.0
2016-May-23 07:33N 51°16' E 004°21'0 0.0
2016-May-23 06:33N 51°16' E 004°21'0 0.0
2016-May-23 05:33N 51°16' E 004°21'0 0.0
2016-May-23 04:33N 51°16' E 004°21'0 0.0
2016-May-23 03:33N 51°16' E 004°21'0 0.0
2016-May-23 02:33N 51°16' E 004°21'0 0.0
2016-May-23 01:33N 51°16' E 004°21'0 0.0
2016-May-23 00:33N 51°16' E 004°21'0 0.0
2016-May-22 23:33N 51°16' E 004°21'0 0.0
2016-May-22 22:30N 51°16' E 004°21'0 0.0
2016-May-22 21:33N 51°16' E 004°21'0 0.0
2016-May-22 20:33N 51°16' E 004°21'0 0.0
2016-May-22 19:33N 51°16' E 004°21'0 0.0
2016-May-22 18:33N 51°16' E 004°21'0 0.0
2016-May-22 17:33N 51°16' E 004°21'0 0.0
2016-May-22 16:33N 51°16' E 004°21'0 0.0
2016-May-22 15:30N 51°16' E 004°21'0 0.0
2016-May-22 14:33N 51°16' E 004°21'0 0.0
2016-May-22 13:33N 51°16' E 004°21'0 0.0
2016-May-22 12:27N 51°16' E 004°21'0 0.0
2016-May-22 11:33N 51°16' E 004°21'0 0.0
2016-May-22 10:33N 51°16' E 004°21'0 0.0
2016-May-22 09:33N 51°16' E 004°21'0 0.0
2016-May-22 08:33N 51°16' E 004°21'0 0.0
2016-May-22 07:33N 51°16' E 004°21'0 0.0
2016-May-22 06:33N 51°16' E 004°21'0 0.0
2016-May-22 05:33N 51°16' E 004°21'0 0.0
2016-May-22 04:33N 51°16' E 004°21'0 0.0
2016-May-22 03:33N 51°16' E 004°21'0 0.0
2016-May-22 02:33N 51°16' E 004°21'0 0.0
2016-May-22 01:33N 51°16' E 004°21'0 0.0
2016-May-22 00:33N 51°16' E 004°21'0 0.0
2016-May-21 23:30N 51°16' E 004°21'0 0.0
2016-May-21 22:33N 51°16' E 004°21'0 0.0
2016-May-21 21:33N 51°16' E 004°21'0 0.0
2016-May-21 20:33N 51°16' E 004°21'0 0.0
2016-May-21 19:30N 51°16' E 004°21'0 0.0
2016-May-21 18:27N 51°16' E 004°21'0 0.0
2016-May-21 17:27N 51°16' E 004°21'0 0.0
2016-May-21 16:30N 51°16' E 004°21'0 0.0
2016-May-21 15:33N 51°16' E 004°21'0 0.0
2016-May-21 14:33N 51°16' E 004°21'0 0.0
2016-May-21 13:33N 51°16' E 004°21'0 0.0
2016-May-21 12:33N 51°16' E 004°21'0 0.0
2016-May-21 11:32N 51°16' E 004°21'0 0.0
2016-May-21 10:32N 51°16' E 004°21'0 0.0
2016-May-21 09:33N 51°16' E 004°21'0 0.0
2016-May-21 08:32N 51°16' E 004°21'0 0.0
2016-May-21 07:33N 51°16' E 004°21'0 0.0
2016-May-21 06:33N 51°16' E 004°21'0 0.0
2016-May-21 05:32N 51°16' E 004°21'0 0.0
2016-May-21 04:32N 51°16' E 004°21'0 0.0
2016-May-21 03:30N 51°16' E 004°21'0 0.0
2016-May-21 02:33N 51°16' E 004°21'0 0.0
2016-May-21 01:29N 51°16' E 004°21'0 0.0
2016-May-21 00:32N 51°16' E 004°21'0 0.0
2016-May-20 23:32N 51°16' E 004°21'0 0.0
2016-May-20 22:32N 51°16' E 004°21'0 0.0
2016-May-20 21:32N 51°16' E 004°21'0 0.0
2016-May-20 20:32N 51°16' E 004°21'0 0.0
2016-May-20 19:32N 51°16' E 004°21'0 0.0
2016-May-20 18:33N 51°16' E 004°21'0 0.0
2016-May-20 17:32N 51°16' E 004°21'0 0.0
2016-May-20 16:32N 51°16' E 004°21'0 0.0
2016-May-20 15:26N 51°16' E 004°21'0 0.0
2016-May-20 14:32N 51°16' E 004°21'0 0.0
2016-May-20 13:29N 51°16' E 004°21'0 0.0
2016-May-20 12:32N 51°16' E 004°21'0 0.0
2016-May-20 11:32N 51°16' E 004°21'0 0.0
2016-May-20 10:32N 51°16' E 004°21'0 0.0
2016-May-20 09:32N 51°16' E 004°21'0 0.0
2016-May-20 08:29N 51°16' E 004°21'0 0.0
2016-May-20 07:32N 51°16' E 004°21'0 0.0
2016-May-20 06:32N 51°16' E 004°21'0 0.0
2016-May-20 05:32N 51°16' E 004°21'0 0.0
2016-May-20 04:26N 51°16' E 004°21'0 0.0
2016-May-20 03:32N 51°16' E 004°21'0 0.0
2016-May-20 02:32N 51°16' E 004°21'0 0.0
2016-May-20 01:29N 51°16' E 004°21'0 0.0
2016-May-20 00:32N 51°16' E 004°21'0 0.0
2016-May-19 23:29N 51°16' E 004°21'0 0.0
2016-May-19 22:29N 51°16' E 004°21'0 0.0
2016-May-19 21:32N 51°16' E 004°21'0 0.0
2016-May-19 20:32N 51°16' E 004°21'0 0.0
2016-May-19 19:29N 51°16' E 004°21'0 0.0
2016-May-19 18:32N 51°16' E 004°21'0 0.0
2016-May-19 17:32N 51°16' E 004°21'0 0.0
2016-May-19 16:17N 51°16' E 004°21'0 0.0
2016-May-19 15:29N 51°16' E 004°21'0 0.0
2016-May-19 14:32N 51°16' E 004°21'0 0.0
2016-May-19 13:32N 51°16' E 004°21'0 0.0
2016-May-19 12:32N 51°16' E 004°21'0 0.0
2016-May-19 11:26N 51°16' E 004°21'0 0.0
2016-May-19 10:29N 51°16' E 004°21'0 0.0
2016-May-19 09:32N 51°16' E 004°21'0 0.0
2016-May-19 08:32N 51°16' E 004°21'0 0.0
2016-May-19 07:32N 51°16' E 004°21'0 0.0
2016-May-19 06:32N 51°16' E 004°21'0 0.0
2016-May-19 05:32N 51°16' E 004°21'0 0.0
2016-May-19 04:32N 51°16' E 004°21'0 0.0
2016-May-19 03:32N 51°16' E 004°21'0 0.0
2016-May-19 02:32N 51°16' E 004°21'0 0.0
2016-May-19 01:32N 51°16' E 004°21'0 0.0
2016-May-19 00:29N 51°16' E 004°21'0 0.0
2016-May-18 23:32N 51°16' E 004°21'0 0.0
2016-May-18 22:32N 51°16' E 004°21'0 0.0
2016-May-18 21:32N 51°16' E 004°21'0 0.0
2016-May-18 20:32N 51°16' E 004°21'0 0.0
2016-May-18 19:32N 51°16' E 004°21'0 0.0
2016-May-18 18:26N 51°16' E 004°21'0 0.0
2016-May-18 17:32N 51°16' E 004°21'0 0.0
2016-May-18 16:32N 51°16' E 004°21'0 0.0
2016-May-18 15:32N 51°16' E 004°21'0 0.0
2016-May-18 14:32N 51°16' E 004°21'0 0.0
2016-May-18 13:29N 51°16' E 004°21'0 0.0
2016-May-18 12:29N 51°16' E 004°21'0 0.0
2016-May-18 11:32N 51°16' E 004°21'0 0.0
2016-May-18 10:29N 51°16' E 004°21'0 0.0
2016-May-18 09:32N 51°16' E 004°21'0 0.0
2016-May-18 08:32N 51°16' E 004°21'0 0.0
2016-May-18 07:32N 51°16' E 004°21'0 0.0
2016-May-18 06:32N 51°16' E 004°21'0 0.0
2016-May-18 05:32N 51°16' E 004°21'0 0.0
2016-May-18 04:29N 51°16' E 004°21'0 0.0
2016-May-18 03:32N 51°16' E 004°21'0 0.0
2016-May-18 02:32N 51°16' E 004°21'0 0.0
2016-May-18 01:29N 51°16' E 004°21'0 0.0
2016-May-18 00:32N 51°16' E 004°21'0 0.0
2016-May-17 23:29N 51°16' E 004°21'0 0.0
2016-May-17 22:32N 51°16' E 004°21'0 0.0
2016-May-17 21:32N 51°16' E 004°21'0 0.0
2016-May-17 20:32N 51°16' E 004°21'0 0.0
2016-May-17 19:29N 51°16' E 004°21'0 0.0
2016-May-17 18:32N 51°16' E 004°21'0 0.0
2016-May-17 17:32N 51°16' E 004°21'1 0.6
2016-May-17 16:33N 51°17' E 004°21'4 4.3
2016-May-17 15:33N 51°21' E 004°17'0 0.3
2016-May-17 14:33N 51°21' E 004°17'5 5.3
2016-May-17 13:33N 51°23' E 004°09'7 7.3
2016-May-17 12:34N 51°24' E 003°57'9 9.3
2016-May-17 11:34N 51°24' E 003°43'10 9.7
2016-May-17 10:33N 51°25' E 003°27'10 9.8
2016-May-17 09:33N 51°24' E 003°11'1212.5
2016-May-17 08:34N 51°22' E 002°52'1211.8
2016-May-17 07:33N 51°20' E 002°33'1 0.8
2016-May-17 06:15N 51°20' E 002°32'0 0.0
2016-May-17 05:30N 51°20' E 002°32'0 0.0
2016-May-17 04:33N 51°20' E 002°32'0 0.1
2016-May-17 03:33N 51°20' E 002°32'0 0.1
2016-May-17 02:30N 51°20' E 002°32'0 0.0
2016-May-17 01:33N 51°20' E 002°32'0 0.0
2016-May-17 00:33N 51°20' E 002°32'0 0.0
2016-May-16 23:33N 51°20' E 002°32'0 0.0
2016-May-16 22:33N 51°20' E 002°32'0 0.0
2016-May-16 21:33N 51°20' E 002°32'0 0.0
2016-May-16 20:33N 51°20' E 002°32'0 0.1
2016-May-16 19:33N 51°20' E 002°32'0 0.1
2016-May-16 18:33N 51°20' E 002°32'0 0.0
2016-May-16 17:33N 51°20' E 002°32'0 0.0
2016-May-16 16:33N 51°20' E 002°32'0 0.0
2016-May-16 15:33N 51°20' E 002°32'0 0.0
2016-May-16 14:33N 51°20' E 002°32'0 0.0
2016-May-16 13:33N 51°20' E 002°32'0 0.0
2016-May-16 12:32N 51°20' E 002°32'0 0.1
2016-May-16 11:32N 51°20' E 002°32'0 0.0
2016-May-16 10:32N 51°20' E 002°32'0 0.0
2016-May-16 09:33N 51°20' E 002°32'0 0.0
2016-May-16 08:29N 51°20' E 002°32'2 1.6
2016-May-16 07:28N 51°21' E 002°33'8 8.1
2016-May-16 06:29N 51°19' E 002°20'1010.7
2016-May-16 05:34N 51°15' E 002°06'1212.2
2016-May-16 04:33N 51°08' E 001°50'1211.7
2016-May-16 03:34N 51°00' E 001°37'  

Dump ship's entire track history